Time;durP1;ratioP1;P1;durP2;ratioP2;P2;SDS_P1;SDS_P2;PMS_P1;PMS_P2;Temp;Humidity;BMP_temperature;BMP_pressure;BME280_temperature;BME280_humidity;BME280_pressure;Samples;Min_cycle;Max_cycle;Signal;HPM_P1;HPM_P2
2021/12/30 00:02:29;;;;;;;83.17;22.83;;;-4.40;99.90;;;;;;5092273;28;20182;-61
2021/12/30 00:04:55;;;;;;;81.90;21.93;;;-4.40;99.90;;;;;;5092069;28;20263;-59
2021/12/30 00:07:21;;;;;;;89.30;23.50;;;-4.30;99.90;;;;;;5092286;28;20513;-61
2021/12/30 00:09:47;;;;;;;88.30;25.13;;;-4.30;99.90;;;;;;5092355;28;20193;-61
2021/12/30 00:12:13;;;;;;;96.77;23.77;;;-4.30;99.90;;;;;;5091952;28;20222;-60
2021/12/30 00:14:38;;;;;;;97.47;21.53;;;-4.30;99.90;;;;;;5092066;28;20732;-61
2021/12/30 00:17:04;;;;;;;85.80;22.10;;;-4.40;99.90;;;;;;5092030;28;20210;-60
2021/12/30 00:19:30;;;;;;;92.83;21.90;;;-4.50;99.90;;;;;;5092134;28;20198;-61
2021/12/30 00:21:56;;;;;;;90.83;23.87;;;-4.60;99.90;;;;;;5092065;28;20225;-61
2021/12/30 00:24:21;;;;;;;94.43;21.97;;;-4.60;99.90;;;;;;5092431;28;20183;-61
2021/12/30 00:26:47;;;;;;;1126.70;85.73;;;-4.60;99.90;;;;;;5092162;28;20186;-60
2021/12/30 00:29:13;;;;;;;209.30;39.00;;;-4.20;99.90;;;;;;5085673;28;20186;-61
2021/12/30 00:31:39;;;;;;;80.70;22.73;;;-4.00;99.90;;;;;;5072030;28;20642;-62
2021/12/30 00:34:04;;;;;;;95.37;23.50;;;-4.00;99.90;;;;;;5072136;28;20186;-62
2021/12/30 00:36:31;;;;;;;83.70;21.77;;;-4.20;99.90;;;;;;5071893;28;20202;-60
2021/12/30 00:38:57;;;;;;;75.20;20.87;;;-4.30;99.90;;;;;;5072075;28;20265;-61
2021/12/30 00:41:23;;;;;;;92.43;23.80;;;-4.30;99.90;;;;;;5091971;28;20273;-61
2021/12/30 00:43:49;;;;;;;89.97;22.17;;;-4.30;99.90;;;;;;5091884;28;20240;-64
2021/12/30 00:46:14;;;;;;;90.97;24.97;;;-4.30;99.90;;;;;;5091616;28;20194;-61
2021/12/30 00:48:41;;;;;;;118.37;25.90;;;-4.20;99.90;;;;;;5091880;28;20179;-61
2021/12/30 00:51:08;;;;;;;91.17;23.27;;;-4.30;99.90;;;;;;5091796;28;20187;-60
2021/12/30 00:53:34;;;;;;;93.37;22.67;;;-4.40;99.90;;;;;;5091772;28;20178;-61
2021/12/30 00:56:00;;;;;;;79.77;22.07;;;-4.40;99.90;;;;;;5091610;28;20204;-62
2021/12/30 00:58:26;;;;;;;103.00;22.40;;;-4.40;99.90;;;;;;5092102;28;20659;-59
2021/12/30 01:00:54;;;;;;;94.83;23.67;;;-4.40;99.90;;;;;;5091582;28;20182;-61
2021/12/30 01:03:20;;;;;;;85.13;21.80;;;-4.50;99.90;;;;;;5091902;28;20201;-62
2021/12/30 01:05:46;;;;;;;87.17;21.83;;;-4.50;99.90;;;;;;5091950;28;20260;-61
2021/12/30 01:08:12;;;;;;;102.50;22.10;;;-4.50;99.90;;;;;;5091735;28;20182;-63
2021/12/30 01:10:39;;;;;;;99.63;23.73;;;-4.60;99.90;;;;;;5092021;28;20540;-60
2021/12/30 01:13:08;;;;;;;98.47;25.83;;;-4.60;99.90;;;;;;5091160;28;20244;-60
2021/12/30 01:15:55;;;;;;;92.83;21.90;;;-4.60;99.90;;;;;;5091454;28;20300;-60
2021/12/30 01:20:51;;;;;;;80.77;21.53;;;-4.60;99.90;;;;;;5091680;28;20191;-63
2021/12/30 01:23:17;;;;;;;98.33;22.37;;;-4.60;99.90;;;;;;5091749;28;20185;-61
2021/12/30 01:25:43;;;;;;;93.53;24.63;;;-4.60;99.90;;;;;;5091985;28;20182;-60
2021/12/30 01:28:09;;;;;;;86.20;21.93;;;-4.60;99.90;;;;;;5091669;28;20184;-60
2021/12/30 01:30:35;;;;;;;91.97;22.47;;;-4.60;99.90;;;;;;5074200;28;20749;-61
2021/12/30 01:33:01;;;;;;;92.67;22.57;;;-4.60;99.90;;;;;;5071469;28;20281;-61
2021/12/30 01:35:27;;;;;;;101.90;23.30;;;-4.60;99.90;;;;;;5071559;28;20263;-61
2021/12/30 01:38:00;;;;;;;95.20;24.13;;;-4.60;99.90;;;;;;5070033;28;20639;-61
2021/12/30 01:40:26;;;;;;;99.77;24.97;;;-4.50;99.90;;;;;;5085022;28;20509;-60
2021/12/30 01:42:52;;;;;;;91.37;22.47;;;-4.50;99.90;;;;;;5091093;28;20566;-61
2021/12/30 01:45:19;;;;;;;92.07;23.07;;;-4.50;99.90;;;;;;5090939;28;20259;-60
2021/12/30 01:47:51;;;;;;;86.97;22.87;;;-4.50;99.90;;;;;;5091070;28;20528;-60
2021/12/30 01:50:22;;;;;;;98.27;23.83;;;-4.50;99.90;;;;;;5091559;28;20179;-60
2021/12/30 01:52:48;;;;;;;96.20;23.20;;;-4.50;99.90;;;;;;5094952;28;20178;-60
2021/12/30 01:55:16;;;;;;;93.63;21.97;;;-4.50;99.90;;;;;;5094997;28;20221;-59
2021/12/30 01:57:42;;;;;;;104.60;24.00;;;-4.50;99.90;;;;;;5093463;28;20215;-61
2021/12/30 02:00:12;;;;;;;96.60;23.43;;;-4.50;99.90;;;;;;5094209;28;20192;-61
2021/12/30 02:02:39;;;;;;;109.03;25.30;;;-4.40;99.90;;;;;;5094716;28;20177;-61
2021/12/30 02:05:05;;;;;;;101.33;24.77;;;-4.50;99.90;;;;;;5094453;28;20213;-60
2021/12/30 02:07:31;;;;;;;98.07;23.60;;;-4.50;99.90;;;;;;5094477;28;20185;-60
2021/12/30 02:10:01;;;;;;;90.53;22.50;;;-4.50;99.90;;;;;;5094242;28;20190;-61
2021/12/30 02:12:30;;;;;;;95.37;22.50;;;-4.50;99.90;;;;;;5094712;28;20200;-60
2021/12/30 02:14:56;;;;;;;83.03;21.33;;;-4.50;99.90;;;;;;5093388;28;20230;-61
2021/12/30 02:17:22;;;;;;;109.20;22.07;;;-4.50;99.90;;;;;;5094612;28;20668;-60
2021/12/30 02:19:48;;;;;;;99.50;20.70;;;-4.60;99.90;;;;;;5094514;28;20252;-61
2021/12/30 02:22:14;;;;;;;90.90;22.43;;;-4.60;99.90;;;;;;5094286;28;20186;-60
2021/12/30 02:24:46;;;;;;;86.97;19.70;;;-4.60;99.90;;;;;;5094380;28;20273;-59
2021/12/30 02:27:12;;;;;;;89.10;23.03;;;-4.60;99.90;;;;;;5094121;28;20188;-60
2021/12/30 02:29:38;;;;;;;87.90;23.07;;;-4.60;99.90;;;;;;5084642;28;20268;-60
2021/12/30 02:32:05;;;;;;;96.47;20.73;;;-4.60;99.90;;;;;;5072518;28;20250;-59
2021/12/30 02:34:31;;;;;;;90.33;21.90;;;-4.60;99.90;;;;;;5073876;28;20235;-59
2021/12/30 02:36:56;;;;;;;77.10;21.97;;;-4.60;99.90;;;;;;5072505;28;20203;-61
2021/12/30 02:39:23;;;;;;;82.43;20.23;;;-4.60;99.90;;;;;;5078516;28;20189;-59
2021/12/30 02:41:50;;;;;;;78.70;20.50;;;-4.60;99.90;;;;;;5094149;28;20179;-60
2021/12/30 02:44:17;;;;;;;82.33;19.90;;;-4.60;99.90;;;;;;5092895;28;20314;-60
2021/12/30 02:46:43;;;;;;;87.23;21.50;;;-4.60;99.90;;;;;;5094087;28;20178;-60
2021/12/30 02:49:09;;;;;;;90.63;22.60;;;-4.60;99.90;;;;;;5093596;28;20656;-61
2021/12/30 02:51:36;;;;;;;1999.90;245.87;;;-4.60;99.90;;;;;;5093880;28;20180;-60
2021/12/30 02:54:04;;;;;;;463.73;56.03;;;-4.30;99.90;;;;;;5093527;28;20615;-60
2021/12/30 02:56:30;;;;;;;98.97;25.23;;;-4.10;99.90;;;;;;5093843;28;20205;-60
2021/12/30 02:58:56;;;;;;;84.67;24.00;;;-4.00;99.90;;;;;;5091977;28;20195;-61
2021/12/30 03:01:28;;;;;;;90.87;22.43;;;-4.00;99.90;;;;;;5093081;28;20186;-60
2021/12/30 03:03:55;;;;;;;122.63;27.17;;;-4.20;99.90;;;;;;5093347;28;20180;-60
2021/12/30 03:06:21;;;;;;;121.80;27.83;;;-4.00;99.90;;;;;;5093726;28;20687;-61
2021/12/30 03:08:49;;;;;;;108.90;26.53;;;-3.90;99.90;;;;;;5093594;28;20259;-60
2021/12/30 03:11:15;;;;;;;1079.67;104.07;;;-4.10;99.90;;;;;;5072949;28;20519;-60
2021/12/30 03:13:43;;;;;;;101.53;25.20;;;-4.00;99.90;;;;;;5072765;28;20285;-61
2021/12/30 03:16:19;;;;;;;120.37;26.00;;;-4.00;99.90;;;;;;5071339;28;20219;-60
2021/12/30 03:18:48;;;;;;;115.60;26.30;;;-4.20;99.90;;;;;;5072875;28;20245;-61
2021/12/30 03:21:15;;;;;;;99.90;22.63;;;-4.30;99.90;;;;;;5072409;28;20265;-60
2021/12/30 03:23:41;;;;;;;114.03;26.80;;;-4.40;99.90;;;;;;5071670;28;20179;-59
2021/12/30 03:26:08;;;;;;;107.43;25.80;;;-4.40;99.90;;;;;;5072388;28;20175;-60
2021/12/30 03:28:34;;;;;;;125.63;27.77;;;-4.50;99.90;;;;;;5073159;28;20172;-60
2021/12/30 03:31:01;;;;;;;108.33;26.37;;;-4.50;99.90;;;;;;5091226;28;20222;-62
2021/12/30 03:33:31;;;;;;;104.90;24.20;;;-4.50;99.90;;;;;;5092979;28;20218;-61
2021/12/30 03:35:59;;;;;;;108.23;25.23;;;-4.50;99.90;;;;;;5092651;28;20293;-60
2021/12/30 03:38:27;;;;;;;108.93;26.33;;;-4.50;99.90;;;;;;5092529;28;20194;-60
2021/12/30 03:40:53;;;;;;;107.33;24.97;;;-4.50;99.90;;;;;;5075601;28;20255;-60
2021/12/30 03:43:18;;;;;;;125.93;27.63;;;-4.50;99.90;;;;;;5070522;28;20236;-60
2021/12/30 03:45:44;;;;;;;148.57;27.43;;;-4.50;99.90;;;;;;5072531;28;20186;-61
2021/12/30 03:48:11;;;;;;;137.87;28.57;;;-4.50;99.90;;;;;;5054529;28;20205;-60
2021/12/30 03:50:43;;;;;;;153.00;28.30;;;-4.50;99.90;;;;;;5079962;28;20614;-60
2021/12/30 03:53:11;;;;;;;146.60;29.33;;;-4.40;99.90;;;;;;5092100;28;20183;-60
2021/12/30 03:55:37;;;;;;;123.43;25.93;;;-4.50;99.90;;;;;;5092486;28;20193;-61
2021/12/30 03:58:04;;;;;;;127.10;25.53;;;-4.50;99.90;;;;;;5091916;28;20181;-61
2021/12/30 04:00:30;;;;;;;109.07;25.47;;;-4.40;99.90;;;;;;5092313;28;20174;-64
2021/12/30 04:02:56;;;;;;;100.87;25.43;;;-4.40;99.90;;;;;;5092102;28;20635;-60
2021/12/30 04:05:23;;;;;;;109.40;23.90;;;-4.40;99.90;;;;;;5092490;28;20193;-61
2021/12/30 04:07:49;;;;;;;131.50;26.90;;;-4.40;99.90;;;;;;5092232;28;20216;-60
2021/12/30 04:10:17;;;;;;;96.53;26.53;;;-4.40;99.90;;;;;;5091690;28;20279;-60
2021/12/30 04:12:45;;;;;;;151.07;28.13;;;-4.40;99.90;;;;;;5091219;28;20178;-61
2021/12/30 04:15:11;;;;;;;92.37;25.93;;;-4.40;99.90;;;;;;5091158;28;20282;-59
2021/12/30 04:17:38;;;;;;;86.63;23.47;;;-4.40;99.90;;;;;;5091993;28;20285;-60
2021/12/30 04:20:07;;;;;;;125.07;31.97;;;-4.40;99.90;;;;;;5091753;28;20182;-60
2021/12/30 04:22:34;;;;;;;117.10;28.10;;;-4.40;99.90;;;;;;5091963;28;20314;-60
2021/12/30 04:25:00;;;;;;;163.00;28.47;;;-4.40;99.90;;;;;;5091577;28;20177;-59
2021/12/30 04:27:26;;;;;;;124.57;26.83;;;-4.50;99.90;;;;;;5091868;28;20281;-59
2021/12/30 04:29:52;;;;;;;127.03;27.93;;;-4.50;99.90;;;;;;5080256;28;20248;-60
2021/12/30 04:32:18;;;;;;;126.47;28.40;;;-4.50;99.90;;;;;;5071562;28;20190;-61
2021/12/30 04:34:43;;;;;;;119.17;28.03;;;-4.50;99.90;;;;;;5071650;28;20574;-60
2021/12/30 04:37:09;;;;;;;131.60;27.80;;;-4.50;99.90;;;;;;5071478;28;20650;-59
2021/12/30 04:39:35;;;;;;;142.03;28.17;;;-4.40;99.90;;;;;;5076738;28;20273;-59
2021/12/30 04:42:03;;;;;;;105.60;27.57;;;-4.40;99.90;;;;;;5091493;28;20183;-60
2021/12/30 04:44:30;;;;;;;122.73;29.20;;;-4.30;99.90;;;;;;5090162;28;20277;-59
2021/12/30 04:46:57;;;;;;;151.33;32.00;;;-4.30;99.90;;;;;;5090754;28;20232;-61
2021/12/30 04:49:24;;;;;;;119.00;30.27;;;-4.30;99.90;;;;;;5091864;28;20188;-60
2021/12/30 04:51:50;;;;;;;137.93;29.03;;;-4.30;99.90;;;;;;5091645;28;20187;-60
2021/12/30 04:54:17;;;;;;;151.13;32.77;;;-4.40;99.90;;;;;;5091481;28;20579;-60
2021/12/30 04:56:42;;;;;;;138.87;29.33;;;-4.40;99.90;;;;;;5091588;28;20213;-60
2021/12/30 04:59:08;;;;;;;150.37;30.17;;;-4.40;99.90;;;;;;5091100;28;20188;-60
2021/12/30 05:01:34;;;;;;;148.70;33.80;;;-4.40;99.90;;;;;;5091164;28;20238;-59
2021/12/30 05:04:00;;;;;;;141.67;30.17;;;-4.40;99.90;;;;;;5091174;28;20181;-61
2021/12/30 05:06:26;;;;;;;133.40;30.70;;;-4.40;99.90;;;;;;5091832;28;20261;-59
2021/12/30 05:08:51;;;;;;;145.77;31.17;;;-4.40;99.90;;;;;;5090835;28;20256;-59
2021/12/30 05:11:17;;;;;;;136.27;28.33;;;-4.30;99.90;;;;;;5070946;28;20741;-60
2021/12/30 05:13:43;;;;;;;121.27;26.77;;;-4.20;99.90;;;;;;5069345;28;20241;-61
2021/12/30 05:16:09;;;;;;;148.87;29.17;;;-4.20;99.90;;;;;;5070966;28;20212;-60
2021/12/30 05:18:36;;;;;;;1999.90;410.67;;;-4.20;99.90;;;;;;5070951;28;20183;-61
2021/12/30 05:21:05;;;;;;;1007.47;93.53;;;-4.20;99.90;;;;;;5070762;28;20191;-59
2021/12/30 05:23:31;;;;;;;145.77;30.90;;;-3.90;99.90;;;;;;5070878;28;20183;-60
2021/12/30 05:25:57;;;;;;;134.93;29.47;;;-3.90;99.90;;;;;;5074020;28;20258;-61
2021/12/30 05:28:23;;;;;;;170.07;33.77;;;-3.70;99.90;;;;;;5075192;28;20271;-61
2021/12/30 05:30:49;;;;;;;292.17;56.10;;;-3.80;99.90;;;;;;5094356;28;20217;-60
2021/12/30 05:33:15;;;;;;;145.97;33.23;;;-3.80;99.90;;;;;;5094810;28;20546;-61
2021/12/30 05:35:41;;;;;;;158.77;34.37;;;-3.50;99.90;;;;;;5094859;28;20211;-60
2021/12/30 05:38:08;;;;;;;226.80;39.93;;;-3.70;99.90;;;;;;5094642;28;20183;-62
2021/12/30 05:40:34;;;;;;;179.30;38.63;;;-3.90;99.90;;;;;;5079990;28;20651;-61
2021/12/30 05:43:01;;;;;;;192.43;40.47;;;-3.70;99.90;;;;;;5073547;28;20667;-61
2021/12/30 05:45:27;;;;;;;180.80;38.27;;;-3.80;99.90;;;;;;5073253;28;20196;-60
2021/12/30 05:47:54;;;;;;;178.57;37.53;;;-3.90;99.90;;;;;;5074760;28;20234;-60
2021/12/30 05:50:23;;;;;;;189.87;37.07;;;-4.00;99.90;;;;;;5079663;28;20273;-61
2021/12/30 05:52:49;;;;;;;203.67;36.80;;;-4.10;99.90;;;;;;5094432;28;20663;-60
2021/12/30 05:55:16;;;;;;;192.47;35.93;;;-4.10;99.90;;;;;;5094319;28;20225;-60
2021/12/30 05:57:43;;;;;;;155.83;37.77;;;-4.20;99.90;;;;;;5093947;28;20189;-61
2021/12/30 06:00:13;;;;;;;150.47;31.97;;;-4.30;99.90;;;;;;5092685;28;20578;-61
2021/12/30 06:02:38;;;;;;;148.27;34.90;;;-4.20;99.90;;;;;;5094281;28;20182;-61
2021/12/30 06:05:05;;;;;;;223.00;38.83;;;-4.20;99.90;;;;;;5093882;28;20231;-60
2021/12/30 06:07:31;;;;;;;201.70;41.00;;;-4.20;99.90;;;;;;5093986;28;20212;-60
2021/12/30 06:09:57;;;;;;;219.50;41.17;;;-4.20;99.90;;;;;;5094060;28;20227;-61
2021/12/30 06:12:23;;;;;;;192.93;41.60;;;-4.20;99.90;;;;;;5094123;28;20615;-60
2021/12/30 06:14:48;;;;;;;173.77;37.43;;;-4.20;99.90;;;;;;5092613;28;20234;-61
2021/12/30 06:17:15;;;;;;;205.17;40.20;;;-4.20;99.90;;;;;;5093705;28;20372;-60
2021/12/30 06:19:45;;;;;;;242.97;42.93;;;-4.10;99.90;;;;;;5094096;28;20183;-61
2021/12/30 06:22:12;;;;;;;195.30;40.50;;;-4.10;99.90;;;;;;5093704;28;20622;-59
2021/12/30 06:24:39;;;;;;;203.40;41.47;;;-4.10;99.90;;;;;;5094098;28;20508;-60
2021/12/30 06:27:06;;;;;;;173.33;39.40;;;-4.10;99.90;;;;;;5093475;28;20622;-61
2021/12/30 06:29:32;;;;;;;166.07;35.70;;;-4.00;99.90;;;;;;5085248;28;20183;-61
2021/12/30 06:31:57;;;;;;;165.53;37.80;;;-4.10;99.90;;;;;;5073622;28;20183;-61
2021/12/30 06:34:23;;;;;;;186.10;38.40;;;-4.10;99.90;;;;;;5073656;28;20183;-62
2021/12/30 06:36:49;;;;;;;202.73;40.07;;;-4.10;99.90;;;;;;5072458;28;20270;-61
2021/12/30 06:39:15;;;;;;;185.33;38.90;;;-4.10;99.90;;;;;;5076875;28;20191;-60
2021/12/30 06:41:41;;;;;;;214.07;45.90;;;-4.10;99.90;;;;;;5092936;28;20678;-59
2021/12/30 06:44:07;;;;;;;204.97;42.90;;;-4.10;99.90;;;;;;5091817;28;20187;-59
2021/12/30 06:46:33;;;;;;;191.40;43.90;;;-4.00;99.90;;;;;;5093890;28;20239;-62
2021/12/30 06:48:59;;;;;;;200.07;40.17;;;-4.00;99.90;;;;;;5093523;28;20183;-60
2021/12/30 06:51:27;;;;;;;199.33;44.07;;;-3.90;99.90;;;;;;5093367;28;20279;-60
2021/12/30 06:53:55;;;;;;;178.97;39.77;;;-3.90;99.90;;;;;;5093549;28;20203;-60
2021/12/30 06:56:23;;;;;;;215.37;43.57;;;-3.90;99.90;;;;;;5093126;28;20215;-60
2021/12/30 06:58:49;;;;;;;262.40;45.63;;;-3.90;99.90;;;;;;5092728;28;20193;-60
2021/12/30 07:01:14;;;;;;;270.77;49.50;;;-3.90;99.90;;;;;;5093082;28;21231;-60
2021/12/30 07:03:40;;;;;;;228.57;49.93;;;-3.90;99.90;;;;;;5093093;28;20183;-62
2021/12/30 07:06:07;;;;;;;199.37;43.23;;;-3.90;99.90;;;;;;5092753;28;20272;-59
2021/12/30 07:08:33;;;;;;;274.63;52.90;;;-3.80;99.90;;;;;;5091583;28;20301;-60
2021/12/30 07:10:58;;;;;;;247.50;48.50;;;-3.80;99.90;;;;;;5092307;28;20805;-61
2021/12/30 07:13:24;;;;;;;219.73;48.77;;;-3.80;99.90;;;;;;5092181;28;20235;-64
2021/12/30 07:15:50;;;;;;;224.67;50.13;;;-3.80;99.90;;;;;;5092786;28;20208;-60
2021/12/30 07:18:16;;;;;;;284.13;52.83;;;-3.80;99.90;;;;;;5092067;28;20205;-61
2021/12/30 07:20:42;;;;;;;290.77;54.90;;;-3.80;99.90;;;;;;5091083;28;20199;-61
2021/12/30 07:23:07;;;;;;;214.87;46.63;;;-3.80;99.90;;;;;;5092268;28;20186;-60
2021/12/30 07:25:33;;;;;;;271.90;52.87;;;-3.80;99.90;;;;;;5092740;28;20263;-61
2021/12/30 07:28:01;;;;;;;223.17;55.03;;;-3.80;99.90;;;;;;5092325;28;20185;-61
2021/12/30 07:30:27;;;;;;;224.00;46.90;;;-3.80;99.90;;;;;;5074928;28;20711;-60
2021/12/30 07:32:53;;;;;;;212.50;47.47;;;-3.90;99.90;;;;;;5070561;28;20270;-62
2021/12/30 07:35:21;;;;;;;201.10;47.03;;;-3.80;99.90;;;;;;5072031;28;20263;-61
2021/12/30 07:37:48;;;;;;;288.50;53.10;;;-3.80;99.90;;;;;;5072174;28;20550;-60
2021/12/30 07:40:14;;;;;;;250.50;49.43;;;-3.80;99.90;;;;;;5083817;28;20182;-61
2021/12/30 07:42:40;;;;;;;247.50;49.70;;;-3.70;99.90;;;;;;5092337;28;20191;-61
2021/12/30 07:45:09;;;;;;;244.20;52.80;;;-3.70;99.90;;;;;;5091914;28;20209;-61
2021/12/30 07:47:34;;;;;;;214.00;45.37;;;-3.70;99.90;;;;;;5092483;28;20175;-61
2021/12/30 07:50:00;;;;;;;248.07;54.40;;;-3.60;99.90;;;;;;5091674;28;20184;-62
2021/12/30 07:52:26;;;;;;;254.80;54.83;;;-3.70;99.90;;;;;;5092168;28;20619;-63
2021/12/30 07:54:52;;;;;;;1799.67;180.00;;;-3.60;99.90;;;;;;5092057;28;20182;-62
2021/12/30 07:57:22;;;;;;;467.23;67.03;;;-3.40;99.90;;;;;;5090977;28;20187;-62
2021/12/30 07:59:49;;;;;;;207.63;48.07;;;-3.10;99.90;;;;;;5091963;28;20196;-60
2021/12/30 08:02:15;;;;;;;208.80;50.03;;;-3.00;99.90;;;;;;5091866;28;20706;-61
2021/12/30 08:04:41;;;;;;;212.20;50.27;;;-3.00;99.90;;;;;;5091792;28;20180;-62
2021/12/30 08:07:07;;;;;;;253.10;53.63;;;-3.20;99.90;;;;;;5089777;28;20187;-61
2021/12/30 08:09:33;;;;;;;247.50;54.57;;;-3.00;99.90;;;;;;5090148;28;20184;-62
2021/12/30 08:12:00;;;;;;;247.93;53.67;;;-3.20;99.90;;;;;;5089357;28;20187;-62
2021/12/30 08:14:29;;;;;;;257.00;59.90;;;-3.20;99.90;;;;;;5091656;28;20238;-61
2021/12/30 08:16:55;;;;;;;232.03;53.63;;;-2.90;99.90;;;;;;5090216;28;20293;-60
2021/12/30 08:19:22;;;;;;;240.77;55.23;;;-3.00;99.90;;;;;;5090874;28;20203;-62
2021/12/30 08:21:48;;;;;;;235.47;55.43;;;-3.20;99.90;;;;;;5090904;28;20543;-61
2021/12/30 08:24:14;;;;;;;238.13;54.30;;;-3.00;99.90;;;;;;5089938;28;20199;-61
2021/12/30 08:26:40;;;;;;;265.93;55.07;;;-3.10;99.90;;;;;;5090830;28;20184;-61
2021/12/30 08:29:07;;;;;;;268.77;57.57;;;-3.10;99.90;;;;;;5085648;28;20226;-62
2021/12/30 08:31:34;;;;;;;249.63;55.17;;;-3.20;99.90;;;;;;5069784;28;20794;-63
2021/12/30 08:34:00;;;;;;;299.50;59.20;;;-3.10;99.90;;;;;;5069149;28;20267;-62
2021/12/30 08:36:26;;;;;;;273.47;59.23;;;-3.10;99.90;;;;;;5070661;28;20208;-61
2021/12/30 08:38:52;;;;;;;280.13;60.37;;;-2.90;99.90;;;;;;5071126;28;20180;-61
2021/12/30 08:41:17;;;;;;;291.83;60.80;;;-2.60;99.90;;;;;;5090056;28;20627;-61
2021/12/30 08:43:43;;;;;;;284.60;62.03;;;-2.70;99.90;;;;;;5091061;28;20222;-63
2021/12/30 08:46:09;;;;;;;279.67;61.00;;;-2.80;99.90;;;;;;5091411;28;20187;-61
2021/12/30 08:48:37;;;;;;;241.70;57.83;;;-3.00;99.90;;;;;;5091239;28;20180;-64
2021/12/30 08:51:03;;;;;;;277.83;63.43;;;-2.90;99.90;;;;;;5090285;28;20199;-63
2021/12/30 08:53:29;;;;;;;296.10;61.70;;;-3.00;99.90;;;;;;5090259;28;20181;-61
2021/12/30 08:55:55;;;;;;;275.77;61.33;;;-3.00;99.90;;;;;;5090518;28;20210;-61
2021/12/30 08:58:21;;;;;;;301.37;64.00;;;-2.80;99.90;;;;;;5090999;28;20184;-61
2021/12/30 09:00:47;;;;;;;287.20;61.50;;;-2.60;99.90;;;;;;5093780;28;20188;-61
2021/12/30 09:03:16;;;;;;;287.00;66.00;;;-2.70;99.90;;;;;;5094779;28;20652;-62
2021/12/30 09:05:42;;;;;;;302.57;67.17;;;-2.50;99.90;;;;;;5095491;28;20229;-62
2021/12/30 09:08:08;;;;;;;285.03;68.97;;;-2.50;99.90;;;;;;5094795;28;20266;-63
2021/12/30 09:10:45;;;;;;;278.57;65.33;;;-2.60;99.90;;;;;;5093862;28;20278;-62
2021/12/30 09:13:11;;;;;;;312.03;66.43;;;-2.50;99.90;;;;;;5094521;28;20187;-62
2021/12/30 09:15:37;;;;;;;246.70;58.20;;;-2.30;99.90;;;;;;5094896;28;20205;-62
2021/12/30 09:18:05;;;;;;;305.53;63.03;;;-2.30;99.90;;;;;;5094353;28;20298;-61
2021/12/30 09:20:31;;;;;;;280.07;60.03;;;-2.30;99.90;;;;;;5093776;28;20229;-62
2021/12/30 09:22:57;;;;;;;243.37;56.73;;;-2.40;99.90;;;;;;5076279;28;20284;-61
2021/12/30 09:25:24;;;;;;;249.87;57.93;;;-2.30;99.90;;;;;;5094234;28;20275;-61
2021/12/30 09:27:53;;;;;;;252.03;59.33;;;-2.30;99.90;;;;;;5094254;28;20203;-63
2021/12/30 09:30:19;;;;;;;245.90;53.97;;;-2.30;99.90;;;;;;5079132;28;20181;-61
2021/12/30 09:32:47;;;;;;;225.43;55.60;;;-2.20;99.90;;;;;;5073753;28;20193;-61
2021/12/30 09:35:14;;;;;;;257.37;59.03;;;-2.10;99.90;;;;;;5073733;28;20177;-62
2021/12/30 09:37:40;;;;;;;261.67;55.80;;;-2.00;99.90;;;;;;5073955;28;20185;-61
2021/12/30 09:40:10;;;;;;;224.00;53.13;;;-1.90;99.90;;;;;;5082923;28;20223;-62
2021/12/30 09:42:37;;;;;;;219.80;52.03;;;-1.70;99.90;;;;;;5092984;28;20185;-63
2021/12/30 09:45:04;;;;;;;191.47;50.67;;;-1.70;99.90;;;;;;5094100;28;20184;-61
2021/12/30 09:47:30;;;;;;;222.30;54.63;;;-1.90;99.90;;;;;;5094105;28;20173;-61
2021/12/30 09:49:56;;;;;;;216.77;54.77;;;-1.90;99.90;;;;;;5094167;28;20172;-62
2021/12/30 09:52:22;;;;;;;202.77;48.93;;;-1.90;99.90;;;;;;5092564;28;20182;-63
2021/12/30 09:54:48;;;;;;;206.70;49.77;;;-1.90;99.90;;;;;;5093316;28;20267;-61
2021/12/30 09:57:13;;;;;;;193.37;49.27;;;-2.00;99.90;;;;;;5093482;28;20208;-61
2021/12/30 09:59:39;;;;;;;224.83;54.20;;;-2.10;99.90;;;;;;5094537;28;20193;-61
2021/12/30 10:02:05;;;;;;;231.57;54.20;;;-2.00;99.90;;;;;;5094098;28;20200;-62
2021/12/30 10:04:34;;;;;;;230.53;61.13;;;-2.00;99.90;;;;;;5094198;28;20176;-61
2021/12/30 10:07:01;;;;;;;200.47;51.73;;;-1.80;99.90;;;;;;5094363;28;20173;-62
2021/12/30 10:09:50;;;;;;;198.20;48.40;;;-1.70;99.90;;;;;;5093755;28;20195;-62
2021/12/30 10:12:32;;;;;;;188.10;49.73;;;-1.70;99.90;;;;;;5092131;28;20172;-62
2021/12/30 10:14:57;;;;;;;174.33;46.23;;;-1.70;99.90;;;;;;5093615;28;20220;-63
2021/12/30 10:17:26;;;;;;;203.63;54.07;;;-1.70;99.90;;;;;;5093772;28;20540;-61
2021/12/30 10:19:53;;;;;;;184.73;50.03;;;-1.70;99.90;;;;;;5092474;28;20197;-61
2021/12/30 10:22:23;;;;;;;193.97;51.33;;;-1.70;99.90;;;;;;5092612;28;20173;-62
2021/12/30 10:24:49;;;;;;;174.30;50.77;;;-1.50;99.90;;;;;;5093004;28;20212;-61
2021/12/30 10:27:24;;;;;;;208.20;55.40;;;-1.30;99.90;;;;;;5094051;28;20180;-62
2021/12/30 10:29:50;;;;;;;254.47;60.37;;;-1.20;99.90;;;;;;5082301;28;20234;-61
2021/12/30 10:32:18;;;;;;;216.40;59.63;;;-1.20;99.90;;;;;;5073429;28;20174;-60
2021/12/30 10:35:02;;;;;;;213.00;56.63;;;-1.50;99.90;;;;;;5073160;28;20172;-61
2021/12/30 10:37:28;;;;;;;205.53;57.20;;;-1.50;99.90;;;;;;5072883;28;20280;-60
2021/12/30 10:39:54;;;;;;;201.07;54.97;;;-1.40;99.90;;;;;;5072342;28;20605;-60
2021/12/30 10:42:22;;;;;;;204.43;54.30;;;-1.40;99.90;;;;;;5071992;28;20190;-60
2021/12/30 10:44:54;;;;;;;215.03;57.40;;;-1.30;99.90;;;;;;5073032;28;20185;-60
2021/12/30 10:47:22;;;;;;;227.77;60.70;;;-1.20;99.90;;;;;;5072286;28;20585;-61
2021/12/30 10:50:08;;;;;;;206.07;54.53;;;-1.10;99.90;;;;;;5073806;28;20220;-61
2021/12/30 10:52:44;;;;;;;223.70;57.10;;;-1.30;99.90;;;;;;5092757;28;20565;-60
2021/12/30 10:55:12;;;;;;;213.97;54.37;;;-1.40;99.90;;;;;;5092406;28;20557;-61
2021/12/30 10:57:38;;;;;;;235.67;53.33;;;-1.40;99.90;;;;;;5092987;28;20211;-60
2021/12/30 11:00:08;;;;;;;290.87;68.90;;;-1.40;99.90;;;;;;5092778;28;20212;-61
2021/12/30 11:02:33;;;;;;;182.33;49.57;;;-1.10;99.90;;;;;;5092645;28;20181;-61
2021/12/30 11:05:06;;;;;;;158.80;45.00;;;-1.10;99.90;;;;;;5090987;28;20180;-59
2021/12/30 11:07:46;;;;;;;134.87;43.97;;;-1.10;99.90;;;;;;5093075;28;20204;-60
2021/12/30 11:10:17;;;;;;;119.30;37.00;;;-0.90;99.90;;;;;;5091825;28;20661;-60
2021/12/30 11:12:47;;;;;;;109.60;35.37;;;-0.90;99.90;;;;;;5092653;28;20199;-62
2021/12/30 11:15:26;;;;;;;113.30;37.00;;;-1.10;99.90;;;;;;5092503;28;20264;-62
2021/12/30 11:18:26;;;;;;;111.20;32.67;;;-1.00;99.90;;;;;;5092154;28;20192;-61
2021/12/30 11:20:51;;;;;;;110.37;34.80;;;-0.90;99.90;;;;;;5092482;28;20168;-60
2021/12/30 11:23:18;;;;;;;120.03;37.17;;;-0.60;99.90;;;;;;5091572;28;20278;-61
2021/12/30 11:25:44;;;;;;;102.10;32.90;;;-0.60;99.90;;;;;;5091926;28;20543;-60
2021/12/30 11:28:11;;;;;;;109.53;34.77;;;-0.70;99.90;;;;;;5092205;28;20173;-61
2021/12/30 11:30:37;;;;;;;109.87;34.50;;;-0.80;99.90;;;;;;5074442;28;20240;-60
2021/12/30 11:33:03;;;;;;;88.67;31.70;;;-0.80;99.90;;;;;;5071188;28;20189;-59
2021/12/30 11:35:30;;;;;;;110.20;33.33;;;-0.70;99.90;;;;;;5070238;28;20650;-62
2021/12/30 11:37:56;;;;;;;91.73;32.00;;;-0.70;99.90;;;;;;5071465;28;20268;-60
2021/12/30 11:40:26;;;;;;;89.97;30.73;;;-0.70;99.90;;;;;;5084532;28;20181;-58
2021/12/30 11:42:56;;;;;;;91.27;30.27;;;-0.60;99.90;;;;;;5091240;28;20219;-61
2021/12/30 11:45:37;;;;;;;91.40;29.83;;;-0.40;99.90;;;;;;5092314;28;20177;-63
2021/12/30 11:48:05;;;;;;;87.27;29.33;;;-0.50;99.90;;;;;;5091463;28;20169;-60
2021/12/30 11:50:37;;;;;;;83.00;28.93;;;-0.40;99.90;;;;;;5091793;28;20212;-60
2021/12/30 11:53:12;;;;;;;76.13;29.20;;;-0.40;99.90;;;;;;5091215;28;20188;-61
2021/12/30 11:55:59;;;;;;;83.93;30.47;;;-0.40;99.90;;;;;;5091258;28;20204;-62
2021/12/30 11:58:28;;;;;;;93.47;34.17;;;-0.30;99.90;;;;;;5091541;28;20238;-62
2021/12/30 12:01:02;;;;;;;90.13;32.30;;;-0.20;99.90;;;;;;5091202;28;20253;-62
2021/12/30 12:03:28;;;;;;;107.97;33.83;;;0.10;99.90;;;;;;5091780;28;20224;-61
2021/12/30 12:05:53;;;;;;;96.27;31.10;;;0.00;99.90;;;;;;5091233;28;20181;-62
2021/12/30 12:08:19;;;;;;;100.87;31.63;;;0.10;99.90;;;;;;5090054;28;20185;-61
2021/12/30 12:11:15;;;;;;;101.00;33.03;;;0.00;99.90;;;;;;5091516;28;20633;-61
2021/12/30 12:13:43;;;;;;;94.33;32.07;;;-0.10;99.90;;;;;;5091248;28;20251;-62
2021/12/30 12:16:09;;;;;;;92.40;32.00;;;-0.30;99.90;;;;;;5091099;28;20217;-63
2021/12/30 12:18:35;;;;;;;98.13;35.20;;;-0.50;99.90;;;;;;5091272;28;20193;-62
2021/12/30 12:21:05;;;;;;;96.70;34.23;;;-0.50;99.90;;;;;;5090638;28;20621;-63
2021/12/30 12:23:45;;;;;;;108.67;33.10;;;-0.60;99.90;;;;;;5089646;28;20624;-63
2021/12/30 12:26:18;;;;;;;99.07;34.97;;;-0.70;99.90;;;;;;5089159;28;20187;-62